createdAt,value
2022-12-05T00:01:50.106Z,27.80
2022-12-05T00:04:18.151Z,26.95
2022-12-05T00:06:46.213Z,26.88
2022-12-05T00:09:15.189Z,26.73
2022-12-05T00:11:44.914Z,26.90
2022-12-05T00:14:14.926Z,26.63
2022-12-05T00:16:44.255Z,27.08
2022-12-05T00:19:14.509Z,25.73
2022-12-05T00:21:42.623Z,26.88
2022-12-05T00:24:14.176Z,24.92
2022-12-05T00:26:42.554Z,25.13
2022-12-05T00:29:12.372Z,27.02
2022-12-05T00:31:42.147Z,25.08
2022-12-05T00:34:10.470Z,26.02
2022-12-05T00:36:38.692Z,24.57
2022-12-05T00:39:08.723Z,25.80
2022-12-05T00:41:36.920Z,25.23
2022-12-05T00:44:06.997Z,24.55
2022-12-05T00:46:36.415Z,24.95
2022-12-05T00:49:07.386Z,25.00
2022-12-05T00:51:38.065Z,24.67
2022-12-05T00:54:11.271Z,23.60
2022-12-05T00:56:39.398Z,24.80
2022-12-05T00:59:07.839Z,23.10
2022-12-05T01:01:38.273Z,23.65
2022-12-05T01:04:10.817Z,23.30
2022-12-05T01:06:39.213Z,23.95
2022-12-05T01:09:07.908Z,22.40
2022-12-05T01:11:41.060Z,23.75
2022-12-05T01:14:09.802Z,24.25
2022-12-05T01:16:39.669Z,24.27
2022-12-05T01:19:12.679Z,24.15
2022-12-05T01:21:40.716Z,24.00
2022-12-05T01:24:09.481Z,22.73
2022-12-05T01:26:37.458Z,22.85
2022-12-05T01:29:05.991Z,23.73
2022-12-05T01:31:35.964Z,23.08
2022-12-05T01:34:07.292Z,23.05
2022-12-05T01:36:39.216Z,24.50
2022-12-05T01:39:08.072Z,23.23
2022-12-05T01:41:38.135Z,23.90
2022-12-05T01:44:09.098Z,22.45
2022-12-05T01:46:38.693Z,22.45
2022-12-05T01:49:10.820Z,21.77
2022-12-05T01:51:43.725Z,24.60
2022-12-05T01:54:12.828Z,22.57
2022-12-05T01:56:43.477Z,23.30
2022-12-05T01:59:13.443Z,23.80
2022-12-05T02:01:42.066Z,22.50
2022-12-05T02:04:10.962Z,23.38
2022-12-05T02:06:40.371Z,22.48
2022-12-05T02:09:08.624Z,22.17
2022-12-05T02:11:39.996Z,22.45
2022-12-05T02:14:21.755Z,23.23
2022-12-05T02:17:00.141Z,21.77
2022-12-05T02:19:56.084Z,22.58
2022-12-05T02:22:45.480Z,22.05
2022-12-05T02:25:31.657Z,22.00
2022-12-05T02:28:25.740Z,22.58
2022-12-05T02:30:59.451Z,22.02
2022-12-05T02:33:35.786Z,23.00
2022-12-05T02:36:08.545Z,23.10
2022-12-05T02:38:40.664Z,23.55
2022-12-05T02:41:18.091Z,23.20
2022-12-05T02:43:52.472Z,22.30
2022-12-05T02:46:23.953Z,23.13
2022-12-05T02:48:56.805Z,22.75
2022-12-05T02:51:28.392Z,23.23
2022-12-05T02:53:58.732Z,23.67
2022-12-05T02:56:28.056Z,21.93
2022-12-05T02:58:57.521Z,21.85
2022-12-05T03:01:29.647Z,22.80
2022-12-05T03:03:59.988Z,24.65
2022-12-05T03:06:30.724Z,22.70
2022-12-05T03:09:02.622Z,22.55
2022-12-05T03:11:35.370Z,22.77
2022-12-05T03:14:07.669Z,22.40
2022-12-05T03:16:41.555Z,20.52
2022-12-05T03:19:13.866Z,22.17
2022-12-05T03:21:48.942Z,21.60
2022-12-05T03:24:17.595Z,21.83
2022-12-05T03:26:51.846Z,21.55
2022-12-05T03:29:27.854Z,22.35
2022-12-05T03:32:09.384Z,21.40
2022-12-05T03:34:47.324Z,20.08
2022-12-05T03:37:21.138Z,21.30
2022-12-05T03:39:56.112Z,20.98
2022-12-05T03:42:30.819Z,20.00
2022-12-05T03:45:02.107Z,21.75
2022-12-05T03:47:39.696Z,21.17
2022-12-05T03:50:13.343Z,20.80
2022-12-05T03:53:17.936Z,20.75
2022-12-05T03:55:38.366Z,20.50
2022-12-05T03:58:11.690Z,21.10
2022-12-05T04:00:43.900Z,21.17
2022-12-05T04:03:19.221Z,18.20
2022-12-05T04:05:50.798Z,20.15
2022-12-05T04:08:24.794Z,19.92
2022-12-05T04:10:56.037Z,19.80
2022-12-05T04:13:28.406Z,20.15
2022-12-05T04:16:17.916Z,19.77
2022-12-05T04:18:53.867Z,21.10
2022-12-05T04:21:40.889Z,19.67
2022-12-05T04:24:29.989Z,18.08
2022-12-05T04:27:10.283Z,20.30
2022-12-05T04:29:45.763Z,20.00
2022-12-05T04:32:15.438Z,20.08
2022-12-05T04:34:51.021Z,18.50
2022-12-05T04:37:23.739Z,18.90
2022-12-05T04:39:59.059Z,18.70
2022-12-05T04:42:30.424Z,18.25
2022-12-05T04:45:04.430Z,18.05
2022-12-05T04:47:37.060Z,18.60
2022-12-05T04:50:09.156Z,17.90
2022-12-05T04:52:38.695Z,18.13
2022-12-05T04:55:10.583Z,17.53
2022-12-05T04:57:45.317Z,18.27
2022-12-05T05:00:14.151Z,18.10
2022-12-05T05:02:47.875Z,18.63
2022-12-05T05:05:20.068Z,18.20
2022-12-05T05:07:50.249Z,17.30
2022-12-05T05:10:25.741Z,16.85
2022-12-05T05:12:53.950Z,17.98
2022-12-05T05:15:21.856Z,18.58
2022-12-05T05:17:49.772Z,18.25
2022-12-05T05:20:25.257Z,18.20
2022-12-05T05:22:54.261Z,18.55
2022-12-05T05:25:22.965Z,18.08
2022-12-05T05:27:52.198Z,17.48
2022-12-05T05:30:20.472Z,18.73
2022-12-05T05:32:48.500Z,18.58
2022-12-05T05:35:17.928Z,17.97
2022-12-05T05:37:46.767Z,18.55
2022-12-05T05:40:15.577Z,17.52
2022-12-05T05:42:44.624Z,18.23
2022-12-05T05:45:13.937Z,19.15
2022-12-05T05:47:42.207Z,18.42
2022-12-05T05:50:16.260Z,19.35
2022-12-05T05:52:48.886Z,18.42
2022-12-05T05:55:17.054Z,18.10
2022-12-05T05:57:45.011Z,18.90
2022-12-05T06:00:14.148Z,17.55
2022-12-05T06:02:42.597Z,18.45
2022-12-05T06:05:10.755Z,18.60
2022-12-05T06:07:38.783Z,19.23
2022-12-05T06:10:09.513Z,18.67
2022-12-05T06:12:37.482Z,19.83
2022-12-05T06:15:06.311Z,19.25
2022-12-05T06:17:34.295Z,19.40
2022-12-05T06:20:02.306Z,19.38
2022-12-05T06:22:33.920Z,18.90
2022-12-05T06:25:01.816Z,18.40
2022-12-05T06:27:32.285Z,19.13
2022-12-05T06:30:00.509Z,19.45
2022-12-05T06:32:30.152Z,20.50
2022-12-05T06:34:58.123Z,19.65
2022-12-05T06:37:26.037Z,18.48
2022-12-05T06:39:54.147Z,19.23
2022-12-05T06:42:22.997Z,19.30
2022-12-05T06:44:52.256Z,19.27
2022-12-05T06:47:20.171Z,19.00
2022-12-05T06:49:48.127Z,18.40
2022-12-05T06:52:16.079Z,19.70
2022-12-05T06:54:44.063Z,19.42
2022-12-05T06:57:12.392Z,20.13
2022-12-05T06:59:40.423Z,19.15
2022-12-05T07:02:10.907Z,20.30
2022-12-05T07:04:38.929Z,17.17
2022-12-05T07:07:07.744Z,19.17
2022-12-05T07:09:48.447Z,18.90
2022-12-05T07:12:18.902Z,18.73
2022-12-05T07:14:49.151Z,18.50
2022-12-05T07:17:19.959Z,19.17
2022-12-05T07:19:49.718Z,18.00
2022-12-05T07:22:18.192Z,18.73
2022-12-05T07:24:46.574Z,18.83
2022-12-05T07:27:15.457Z,18.60
2022-12-05T07:29:43.691Z,17.25
2022-12-05T07:32:11.713Z,19.20
2022-12-05T07:34:42.235Z,17.83
2022-12-05T07:37:10.154Z,17.17
2022-12-05T07:39:38.130Z,18.52
2022-12-05T07:42:06.139Z,17.23
2022-12-05T07:44:34.924Z,16.70
2022-12-05T07:47:02.922Z,16.30
2022-12-05T07:49:30.876Z,15.70
2022-12-05T07:52:00.170Z,14.52
2022-12-05T07:54:28.076Z,15.43
2022-12-05T07:56:55.999Z,14.90
2022-12-05T07:59:23.930Z,14.00
2022-12-05T08:01:52.071Z,13.57
2022-12-05T08:04:20.158Z,14.30
2022-12-05T08:06:48.199Z,12.82
2022-12-05T08:09:17.496Z,13.27
2022-12-05T08:11:50.985Z,13.27
2022-12-05T08:14:20.288Z,12.90
2022-12-05T08:16:48.273Z,12.95
2022-12-05T08:19:17.050Z,11.40
2022-12-05T08:21:45.076Z,12.30
2022-12-05T08:24:13.504Z,12.18
2022-12-05T08:26:42.851Z,12.20
2022-12-05T08:29:12.565Z,10.63
2022-12-05T08:31:43.615Z,12.50
2022-12-05T08:34:13.595Z,11.80
2022-12-05T08:36:42.258Z,11.25
2022-12-05T08:39:14.240Z,11.15
2022-12-05T08:41:43.728Z,11.18
2022-12-05T08:44:16.216Z,10.57
2022-12-05T08:46:46.242Z,10.98
2022-12-05T08:49:14.865Z,10.82
2022-12-05T08:51:43.124Z,11.45
2022-12-05T08:54:11.348Z,11.38
2022-12-05T08:56:39.688Z,11.55
2022-12-05T08:59:09.076Z,11.40
2022-12-05T09:01:39.178Z,10.70
2022-12-05T09:04:08.454Z,11.45
2022-12-05T09:06:39.364Z,11.00
2022-12-05T09:09:09.179Z,11.57
2022-12-05T09:11:40.910Z,11.30
2022-12-05T09:14:10.291Z,10.23
2022-12-05T09:16:39.649Z,10.60
2022-12-05T09:19:12.443Z,10.63
2022-12-05T09:21:40.525Z,10.13
2022-12-05T09:24:08.652Z,10.30
2022-12-05T09:26:36.589Z,10.23
2022-12-05T09:29:04.631Z,10.18
2022-12-05T09:31:34.010Z,9.93
2022-12-05T09:34:02.176Z,9.77
2022-12-05T09:36:32.237Z,9.90
2022-12-05T09:39:02.368Z,9.52
2022-12-05T09:42:08.670Z,9.88
2022-12-05T09:44:55.804Z,9.02
2022-12-05T09:47:36.606Z,8.63
2022-12-05T09:50:15.475Z,8.45
2022-12-05T09:52:48.593Z,9.30
2022-12-05T09:55:19.216Z,8.20
2022-12-05T09:57:53.511Z,8.20
2022-12-05T10:00:22.011Z,8.20
2022-12-05T10:03:00.319Z,7.80
2022-12-05T10:05:33.338Z,7.75
2022-12-05T10:08:08.563Z,7.70
2022-12-05T10:10:46.776Z,7.40
2022-12-05T10:13:31.927Z,7.60
2022-12-05T10:16:04.030Z,7.30
2022-12-05T10:18:39.573Z,7.65
2022-12-05T10:21:17.679Z,7.20
2022-12-05T10:23:57.916Z,6.70
2022-12-05T10:26:30.523Z,7.30
2022-12-05T10:29:03.988Z,7.60
2022-12-05T10:31:35.220Z,6.40
2022-12-05T10:34:14.854Z,7.43
2022-12-05T10:36:52.496Z,6.90
2022-12-05T10:39:20.433Z,7.50
2022-12-05T10:41:48.337Z,7.30
2022-12-05T10:44:16.744Z,7.20
2022-12-05T10:46:44.962Z,6.95
2022-12-05T10:49:14.668Z,7.03
2022-12-05T10:51:42.805Z,7.60
2022-12-05T10:54:18.014Z,7.30
2022-12-05T10:56:48.539Z,7.13
2022-12-05T10:59:18.609Z,7.60
2022-12-05T11:01:50.905Z,7.25
2022-12-05T11:04:27.808Z,6.60
2022-12-05T11:06:59.433Z,7.40
2022-12-05T11:09:29.760Z,7.50
2022-12-05T11:12:19.676Z,7.60
2022-12-05T11:14:59.609Z,6.40
2022-12-05T11:17:31.355Z,6.13
2022-12-05T11:20:01.019Z,6.55
2022-12-05T11:22:36.387Z,7.00
2022-12-05T11:25:26.067Z,6.72
2022-12-05T11:27:57.111Z,6.28
2022-12-05T11:30:30.511Z,6.55
2022-12-05T11:33:12.966Z,6.60
2022-12-05T11:35:42.236Z,6.60
2022-12-05T11:38:13.083Z,6.10
2022-12-05T11:40:48.911Z,6.25
2022-12-05T11:43:43.943Z,6.70
2022-12-05T11:46:24.934Z,6.78
2022-12-05T11:49:16.422Z,7.05
2022-12-05T11:51:51.547Z,6.43
2022-12-05T11:57:42.623Z,6.63
2022-12-05T12:00:25.775Z,6.60
2022-12-05T12:03:25.280Z,7.35
2022-12-05T12:06:06.789Z,7.55
2022-12-05T12:08:49.105Z,7.63
2022-12-05T12:11:24.673Z,7.20
2022-12-05T12:14:02.749Z,7.82
2022-12-05T12:16:40.945Z,7.32
2022-12-05T12:19:39.763Z,7.10
2022-12-05T12:22:26.985Z,7.57
2022-12-05T12:25:17.060Z,7.10
2022-12-05T12:27:53.971Z,7.00
2022-12-05T12:30:25.695Z,7.50
2022-12-05T12:33:04.504Z,7.45
2022-12-05T12:35:33.476Z,7.72
2022-12-05T12:38:23.455Z,8.50
2022-12-05T12:40:55.784Z,7.05
2022-12-05T12:43:54.373Z,7.78
2022-12-05T12:46:43.861Z,7.97
2022-12-05T12:49:39.420Z,7.65
2022-12-05T12:52:14.689Z,8.05
2022-12-05T12:55:13.217Z,7.97
2022-12-05T12:57:59.109Z,8.05
2022-12-05T13:00:39.211Z,8.18
2022-12-05T13:03:13.700Z,7.40
2022-12-05T13:05:47.011Z,8.52
2022-12-05T13:08:21.190Z,7.72
2022-12-05T13:10:50.119Z,7.90
2022-12-05T13:13:22.838Z,8.85
2022-12-05T13:15:53.800Z,8.80
2022-12-05T13:18:23.434Z,8.05
2022-12-05T13:20:53.530Z,8.40
2022-12-05T13:23:25.012Z,8.00
2022-12-05T13:25:55.377Z,9.10
2022-12-05T13:28:29.791Z,8.60
2022-12-05T13:31:01.409Z,8.23
2022-12-05T13:33:33.651Z,8.60
2022-12-05T13:36:28.286Z,9.10
2022-12-05T13:39:21.923Z,8.35
2022-12-05T13:42:10.149Z,7.97
2022-12-05T13:44:42.738Z,8.20
2022-12-05T13:47:25.801Z,8.50
2022-12-05T13:49:57.816Z,8.40
2022-12-05T13:52:30.502Z,8.88
2022-12-05T13:55:02.486Z,8.48
2022-12-05T13:57:51.421Z,8.68
2022-12-05T14:00:27.883Z,8.68
2022-12-05T14:03:03.367Z,8.90
2022-12-05T14:05:46.639Z,8.38
2022-12-05T14:08:52.712Z,8.50
2022-12-05T14:11:20.872Z,8.70
2022-12-05T14:13:49.152Z,8.73
2022-12-05T14:16:49.481Z,9.13
2022-12-05T14:20:11.900Z,9.70
2022-12-05T14:23:06.976Z,8.75
2022-12-05T14:25:58.843Z,8.90
2022-12-05T14:28:54.085Z,8.55
2022-12-05T14:31:39.371Z,8.50
2022-12-05T14:34:24.690Z,8.90
2022-12-05T14:37:01.702Z,7.85
2022-12-05T14:39:41.776Z,7.97
2022-12-05T14:42:23.604Z,8.82
2022-12-05T14:44:53.275Z,7.40
2022-12-05T14:47:24.653Z,7.47
2022-12-05T14:49:57.953Z,7.30
2022-12-05T14:52:27.737Z,6.70
2022-12-05T14:55:01.215Z,6.15
2022-12-05T14:57:30.476Z,6.28
2022-12-05T15:00:01.096Z,5.80
2022-12-05T15:02:33.504Z,7.07
2022-12-05T15:05:15.105Z,6.32
2022-12-05T15:07:44.788Z,6.50
2022-12-05T15:10:20.812Z,6.45
2022-12-05T15:12:51.291Z,6.13
2022-12-05T15:15:26.880Z,6.80
2022-12-05T15:18:02.116Z,6.55
2022-12-05T15:20:40.835Z,6.30
2022-12-05T15:23:39.267Z,5.47
2022-12-05T15:26:44.985Z,6.45
2022-12-05T15:29:06.512Z,6.18
2022-12-05T15:31:37.093Z,5.40
2022-12-05T15:34:12.634Z,5.00
2022-12-05T15:36:46.547Z,5.30
2022-12-05T15:39:23.771Z,5.80
2022-12-05T15:41:52.720Z,5.32
2022-12-05T15:44:27.092Z,6.72
2022-12-05T15:46:56.910Z,5.88
2022-12-05T15:49:26.254Z,6.10
2022-12-05T15:52:02.377Z,5.20
2022-12-05T15:54:35.325Z,5.55
2022-12-05T15:57:07.568Z,5.28
2022-12-05T15:59:40.657Z,5.97
2022-12-05T16:02:16.683Z,5.80
2022-12-05T16:04:50.547Z,5.63
2022-12-05T16:07:21.375Z,5.30
2022-12-05T16:09:49.529Z,5.15
2022-12-05T16:12:23.880Z,5.88
2022-12-05T16:14:59.986Z,5.90
2022-12-05T16:17:31.298Z,6.03
2022-12-05T16:20:22.905Z,5.72
2022-12-05T16:22:54.190Z,6.00
2022-12-05T16:25:25.971Z,5.80
2022-12-05T16:28:02.720Z,5.80
2022-12-05T16:30:31.582Z,5.70
2022-12-05T16:33:03.530Z,5.47
2022-12-05T16:35:37.573Z,6.10
2022-12-05T16:38:15.117Z,6.07
2022-12-05T16:40:53.955Z,6.22
2022-12-05T16:43:27.323Z,6.20
2022-12-05T16:45:58.523Z,6.55
2022-12-05T16:48:29.715Z,5.97
2022-12-05T16:51:19.301Z,6.50
2022-12-05T16:53:50.858Z,6.53
2022-12-05T16:56:23.546Z,6.40
2022-12-05T16:58:51.606Z,6.78
2022-12-05T17:01:22.045Z,6.28
2022-12-05T17:03:50.422Z,5.95
2022-12-05T17:06:19.224Z,6.38
2022-12-05T17:08:49.018Z,6.97
2022-12-05T17:11:19.241Z,6.32
2022-12-05T17:13:48.415Z,6.27
2022-12-05T17:16:17.293Z,6.30
2022-12-05T17:18:45.439Z,6.75
2022-12-05T17:21:16.861Z,5.90
2022-12-05T17:23:47.798Z,5.60
2022-12-05T17:26:20.071Z,5.38
2022-12-05T17:28:48.892Z,6.10
2022-12-05T17:31:18.629Z,5.90
2022-12-05T17:33:47.900Z,6.00
2022-12-05T17:36:17.398Z,5.30
2022-12-05T17:38:45.637Z,5.72
2022-12-05T17:41:18.511Z,5.20
2022-12-05T17:43:46.748Z,5.18
2022-12-05T17:46:17.199Z,5.20
2022-12-05T17:48:45.199Z,5.68
2022-12-05T17:51:14.593Z,5.30
2022-12-05T17:53:44.458Z,5.30
2022-12-05T17:56:13.103Z,5.80
2022-12-05T17:58:42.589Z,5.30
2022-12-05T18:01:15.337Z,4.70
2022-12-05T18:03:43.536Z,4.50
2022-12-05T18:06:11.829Z,4.65
2022-12-05T18:08:40.180Z,4.70
2022-12-05T18:11:08.672Z,4.93
2022-12-05T18:13:37.200Z,4.15
2022-12-05T18:16:07.238Z,4.60
2022-12-05T18:18:35.486Z,5.10
2022-12-05T18:21:08.464Z,4.20
2022-12-05T18:23:37.089Z,4.57
2022-12-05T18:26:06.226Z,4.30
2022-12-05T18:28:35.444Z,4.20
2022-12-05T18:31:10.152Z,3.83
2022-12-05T18:33:38.217Z,3.50
2022-12-05T18:36:08.829Z,3.90
2022-12-05T18:38:37.219Z,4.20
2022-12-05T18:41:06.307Z,3.90
2022-12-05T18:43:34.376Z,4.25
2022-12-05T18:46:04.404Z,4.40
2022-12-05T18:48:40.752Z,4.47
2022-12-05T18:51:13.477Z,4.40
2022-12-05T18:53:41.980Z,4.73
2022-12-05T18:56:27.635Z,4.93
2022-12-05T18:58:57.364Z,4.57
2022-12-05T19:01:26.218Z,4.63
2022-12-05T19:03:57.013Z,5.37
2022-12-05T19:06:26.759Z,4.82
2022-12-05T19:08:56.144Z,5.10
2022-12-05T19:11:25.933Z,5.40
2022-12-05T19:13:56.155Z,4.82
2022-12-05T19:16:24.318Z,5.03
2022-12-05T19:18:56.826Z,4.40
2022-12-05T19:21:25.492Z,4.60
2022-12-05T19:23:53.769Z,5.40
2022-12-05T19:26:22.253Z,5.07
2022-12-05T19:28:50.721Z,5.00
2022-12-05T19:31:20.635Z,4.68
2022-12-05T19:33:51.355Z,4.50
2022-12-05T19:36:22.706Z,4.90
2022-12-05T19:38:53.208Z,5.30
2022-12-05T19:41:22.745Z,4.90
2022-12-05T19:43:50.828Z,4.90
2022-12-05T19:46:21.716Z,5.32
2022-12-05T19:48:49.917Z,5.25
2022-12-05T19:51:18.053Z,5.10
2022-12-05T19:53:47.679Z,5.00
2022-12-05T19:56:17.520Z,4.95
2022-12-05T19:58:46.176Z,5.50
2022-12-05T20:01:15.941Z,5.60
2022-12-05T20:03:45.732Z,4.93
2022-12-05T20:06:13.720Z,5.78
2022-12-05T20:08:41.845Z,5.22
2022-12-05T20:11:13.071Z,5.60
2022-12-05T20:13:47.034Z,4.88
2022-12-05T20:16:18.292Z,4.95
2022-12-05T20:18:46.590Z,6.15
2022-12-05T20:21:16.240Z,4.95
2022-12-05T20:23:44.468Z,4.95
2022-12-05T20:26:16.240Z,5.68
2022-12-05T20:28:44.684Z,5.45
2022-12-05T20:31:14.463Z,5.50
2022-12-05T20:33:43.402Z,5.50
2022-12-05T20:36:13.836Z,5.18
2022-12-05T20:38:42.495Z,5.20
2022-12-05T20:41:15.461Z,6.00
2022-12-05T20:43:44.079Z,5.18
2022-12-05T20:46:14.953Z,5.38
2022-12-05T20:48:43.737Z,6.00
2022-12-05T20:51:13.387Z,5.90
2022-12-05T20:53:42.799Z,4.93
2022-12-05T20:56:13.788Z,6.00
2022-12-05T20:58:42.722Z,5.60
2022-12-05T21:01:12.604Z,5.82
2022-12-05T21:03:42.170Z,5.55
2022-12-05T21:06:12.840Z,5.20
2022-12-05T21:08:41.242Z,5.22
2022-12-05T21:11:10.599Z,5.50
2022-12-05T21:13:40.656Z,5.22
2022-12-05T21:16:10.894Z,5.60
2022-12-05T21:18:39.281Z,6.20
2022-12-05T21:21:10.431Z,5.15
2022-12-05T21:23:38.379Z,5.68
2022-12-05T21:26:08.737Z,5.73
2022-12-05T21:28:37.405Z,5.20
2022-12-05T21:31:08.483Z,5.70
2022-12-05T21:33:36.476Z,5.70
2022-12-05T21:36:05.468Z,5.55
2022-12-05T21:38:33.787Z,5.35
2022-12-05T21:41:02.891Z,5.22
2022-12-05T21:43:31.059Z,5.50
2022-12-05T21:45:59.142Z,5.47
2022-12-05T21:48:28.692Z,5.60
2022-12-05T21:50:56.816Z,6.07
2022-12-05T21:53:25.204Z,6.47
2022-12-05T21:56:00.802Z,6.40
2022-12-05T21:58:29.065Z,6.43
2022-12-05T22:00:56.957Z,6.37
2022-12-05T22:03:25.051Z,6.37
2022-12-05T22:06:02.550Z,6.30
2022-12-05T22:08:30.858Z,6.03
2022-12-05T22:11:04.975Z,5.70
2022-12-05T22:13:33.212Z,6.13
2022-12-05T22:16:01.846Z,6.05
2022-12-05T22:18:30.180Z,6.05
2022-12-05T22:20:58.405Z,6.45
2022-12-05T22:23:27.876Z,5.72
2022-12-05T22:26:03.891Z,7.05
2022-12-05T22:28:32.685Z,6.82
2022-12-05T22:31:02.404Z,5.93
2022-12-05T22:33:31.565Z,6.63
2022-12-05T22:36:01.195Z,6.70
2022-12-05T22:38:33.107Z,6.40
2022-12-05T22:41:02.610Z,6.40
2022-12-05T22:43:31.764Z,6.53
2022-12-05T22:46:03.761Z,6.40
2022-12-05T22:48:31.785Z,6.35
2022-12-05T22:51:01.083Z,6.80
2022-12-05T22:53:30.828Z,6.00
2022-12-05T22:56:04.450Z,6.07
2022-12-05T22:58:32.887Z,6.13
2022-12-05T23:01:10.226Z,6.82
2022-12-05T23:03:38.369Z,6.60
2022-12-05T23:06:11.448Z,7.00
2022-12-05T23:08:42.892Z,6.75
2022-12-05T23:11:11.675Z,6.28
2022-12-05T23:13:40.396Z,6.65
2022-12-05T23:16:10.341Z,5.80
2022-12-05T23:18:47.638Z,7.35
2022-12-05T23:21:21.174Z,6.22
2022-12-05T23:23:52.963Z,5.80
2022-12-05T23:26:22.568Z,6.40
2022-12-05T23:28:51.263Z,6.40
2022-12-05T23:31:20.020Z,6.32
2022-12-05T23:33:51.283Z,6.20
2022-12-05T23:36:20.426Z,6.50
2022-12-05T23:38:49.948Z,6.00
2022-12-05T23:41:19.958Z,5.90
2022-12-05T23:43:48.736Z,6.50
2022-12-05T23:46:18.193Z,5.95
2022-12-05T23:48:46.394Z,6.45
2022-12-05T23:51:17.963Z,6.00
2022-12-05T23:53:47.194Z,5.70
2022-12-05T23:56:18.484Z,6.57
2022-12-05T23:58:47.378Z,6.28
